sensor_id;sensor_type;location;lat;lon;timestamp;P1;durP1;ratioP1;P2;durP2;ratioP2
33495;SDS011;19836;55.812;37.560;2023-07-31T00:01:33;3.42;;;2.95;;
33495;SDS011;19836;55.812;37.560;2023-07-31T00:03:59;4.63;;;3.35;;
33495;SDS011;19836;55.812;37.560;2023-07-31T00:06:25;5.68;;;3.28;;
33495;SDS011;19836;55.812;37.560;2023-07-31T00:08:51;8.43;;;3.20;;
33495;SDS011;19836;55.812;37.560;2023-07-31T00:11:17;4.13;;;2.88;;
33495;SDS011;19836;55.812;37.560;2023-07-31T00:13:43;6.63;;;3.95;;
33495;SDS011;19836;55.812;37.560;2023-07-31T00:16:09;5.57;;;3.28;;
33495;SDS011;19836;55.812;37.560;2023-07-31T00:18:35;4.47;;;3.00;;
33495;SDS011;19836;55.812;37.560;2023-07-31T00:21:02;5.10;;;3.28;;
33495;SDS011;19836;55.812;37.560;2023-07-31T00:23:27;4.88;;;3.20;;
33495;SDS011;19836;55.812;37.560;2023-07-31T00:25:53;6.68;;;3.10;;
33495;SDS011;19836;55.812;37.560;2023-07-31T00:28:19;3.80;;;3.00;;
33495;SDS011;19836;55.812;37.560;2023-07-31T00:30:45;6.35;;;3.60;;
33495;SDS011;19836;55.812;37.560;2023-07-31T00:33:11;5.22;;;3.00;;
33495;SDS011;19836;55.812;37.560;2023-07-31T00:35:37;3.17;;;2.85;;
33495;SDS011;19836;55.812;37.560;2023-07-31T00:38:03;8.52;;;3.22;;
33495;SDS011;19836;55.812;37.560;2023-07-31T00:40:29;4.10;;;2.85;;
33495;SDS011;19836;55.812;37.560;2023-07-31T00:42:59;6.20;;;2.95;;
33495;SDS011;19836;55.812;37.560;2023-07-31T00:45:25;4.13;;;2.90;;
33495;SDS011;19836;55.812;37.560;2023-07-31T00:47:52;3.35;;;2.53;;
33495;SDS011;19836;55.812;37.560;2023-07-31T00:50:19;3.83;;;2.63;;
33495;SDS011;19836;55.812;37.560;2023-07-31T00:52:45;5.80;;;3.15;;
33495;SDS011;19836;55.812;37.560;2023-07-31T00:55:11;7.00;;;2.83;;
33495;SDS011;19836;55.812;37.560;2023-07-31T00:57:37;4.40;;;3.05;;
33495;SDS011;19836;55.812;37.560;2023-07-31T01:00:06;4.22;;;2.90;;
33495;SDS011;19836;55.812;37.560;2023-07-31T01:02:33;6.22;;;2.80;;
33495;SDS011;19836;55.812;37.560;2023-07-31T01:05:00;3.97;;;2.65;;
33495;SDS011;19836;55.812;37.560;2023-07-31T01:07:49;5.00;;;2.50;;
33495;SDS011;19836;55.812;37.560;2023-07-31T01:10:21;3.40;;;3.05;;
33495;SDS011;19836;55.812;37.560;2023-07-31T01:12:51;7.18;;;3.10;;
33495;SDS011;19836;55.812;37.560;2023-07-31T01:15:19;4.68;;;2.97;;
33495;SDS011;19836;55.812;37.560;2023-07-31T01:17:46;4.60;;;2.67;;
33495;SDS011;19836;55.812;37.560;2023-07-31T01:20:14;4.18;;;2.70;;
33495;SDS011;19836;55.812;37.560;2023-07-31T01:28:00;4.43;;;2.65;;
33495;SDS011;19836;55.812;37.560;2023-07-31T01:30:34;4.32;;;2.70;;
33495;SDS011;19836;55.812;37.560;2023-07-31T01:33:06;3.42;;;2.65;;
33495;SDS011;19836;55.812;37.560;2023-07-31T01:35:34;2.90;;;2.60;;
33495;SDS011;19836;55.812;37.560;2023-07-31T01:38:02;6.60;;;2.70;;
33495;SDS011;19836;55.812;37.560;2023-07-31T01:40:28;3.17;;;2.55;;
33495;SDS011;19836;55.812;37.560;2023-07-31T01:42:54;4.18;;;2.60;;
33495;SDS011;19836;55.812;37.560;2023-07-31T01:45:20;4.32;;;2.40;;
33495;SDS011;19836;55.812;37.560;2023-07-31T01:47:46;3.20;;;2.40;;
33495;SDS011;19836;55.812;37.560;2023-07-31T01:50:12;2.88;;;2.38;;
33495;SDS011;19836;55.812;37.560;2023-07-31T01:52:38;2.92;;;2.60;;
33495;SDS011;19836;55.812;37.560;2023-07-31T01:55:04;3.28;;;2.60;;
33495;SDS011;19836;55.812;37.560;2023-07-31T01:57:30;3.42;;;2.35;;
33495;SDS011;19836;55.812;37.560;2023-07-31T01:59:56;3.85;;;2.67;;
33495;SDS011;19836;55.812;37.560;2023-07-31T02:02:23;3.10;;;2.67;;
33495;SDS011;19836;55.812;37.560;2023-07-31T02:04:51;2.85;;;2.50;;
33495;SDS011;19836;55.812;37.560;2023-07-31T02:07:16;3.83;;;2.70;;
33495;SDS011;19836;55.812;37.560;2023-07-31T02:09:43;4.57;;;2.75;;
33495;SDS011;19836;55.812;37.560;2023-07-31T02:12:09;3.08;;;2.40;;
33495;SDS011;19836;55.812;37.560;2023-07-31T02:14:35;4.40;;;2.80;;
33495;SDS011;19836;55.812;37.560;2023-07-31T02:17:01;3.28;;;2.60;;
33495;SDS011;19836;55.812;37.560;2023-07-31T02:19:47;3.60;;;2.42;;
33495;SDS011;19836;55.812;37.560;2023-07-31T02:22:13;3.35;;;2.55;;
33495;SDS011;19836;55.812;37.560;2023-07-31T02:24:39;3.28;;;2.83;;
33495;SDS011;19836;55.812;37.560;2023-07-31T02:27:05;2.92;;;2.40;;
33495;SDS011;19836;55.812;37.560;2023-07-31T02:29:31;5.55;;;2.83;;
33495;SDS011;19836;55.812;37.560;2023-07-31T02:31:57;6.20;;;3.30;;
33495;SDS011;19836;55.812;37.560;2023-07-31T02:34:22;4.90;;;3.50;;
33495;SDS011;19836;55.812;37.560;2023-07-31T02:36:48;10.18;;;3.80;;
33495;SDS011;19836;55.812;37.560;2023-07-31T02:39:14;7.93;;;3.60;;
33495;SDS011;19836;55.812;37.560;2023-07-31T02:41:40;4.07;;;2.85;;
33495;SDS011;19836;55.812;37.560;2023-07-31T02:44:06;4.47;;;2.85;;
33495;SDS011;19836;55.812;37.560;2023-07-31T02:46:32;2.85;;;2.45;;
33495;SDS011;19836;55.812;37.560;2023-07-31T02:48:58;2.90;;;2.60;;
33495;SDS011;19836;55.812;37.560;2023-07-31T02:51:23;3.42;;;2.58;;
33495;SDS011;19836;55.812;37.560;2023-07-31T02:53:49;3.17;;;2.50;;
33495;SDS011;19836;55.812;37.560;2023-07-31T02:56:15;3.90;;;2.63;;
33495;SDS011;19836;55.812;37.560;2023-07-31T02:58:41;3.33;;;2.53;;
33495;SDS011;19836;55.812;37.560;2023-07-31T03:01:07;6.07;;;2.60;;
33495;SDS011;19836;55.812;37.560;2023-07-31T03:03:33;3.22;;;2.55;;
33495;SDS011;19836;55.812;37.560;2023-07-31T03:05:59;4.00;;;2.25;;
33495;SDS011;19836;55.812;37.560;2023-07-31T03:08:25;2.70;;;2.50;;
33495;SDS011;19836;55.812;37.560;2023-07-31T03:10:51;4.28;;;2.50;;
33495;SDS011;19836;55.812;37.560;2023-07-31T03:13:24;4.38;;;2.70;;
33495;SDS011;19836;55.812;37.560;2023-07-31T03:15:50;3.58;;;2.53;;
33495;SDS011;19836;55.812;37.560;2023-07-31T03:18:17;3.22;;;2.30;;
33495;SDS011;19836;55.812;37.560;2023-07-31T03:20:43;3.25;;;2.53;;
33495;SDS011;19836;55.812;37.560;2023-07-31T03:23:10;3.15;;;2.42;;
33495;SDS011;19836;55.812;37.560;2023-07-31T03:25:36;3.15;;;2.42;;
33495;SDS011;19836;55.812;37.560;2023-07-31T03:28:03;4.47;;;2.70;;
33495;SDS011;19836;55.812;37.560;2023-07-31T03:30:30;3.78;;;2.38;;
33495;SDS011;19836;55.812;37.560;2023-07-31T03:32:56;3.35;;;2.58;;
33495;SDS011;19836;55.812;37.560;2023-07-31T03:35:22;3.53;;;2.35;;
33495;SDS011;19836;55.812;37.560;2023-07-31T03:37:47;5.55;;;2.47;;
33495;SDS011;19836;55.812;37.560;2023-07-31T03:40:13;2.85;;;2.15;;
33495;SDS011;19836;55.812;37.560;2023-07-31T03:42:41;3.58;;;2.40;;
33495;SDS011;19836;55.812;37.560;2023-07-31T03:45:07;5.43;;;2.90;;
33495;SDS011;19836;55.812;37.560;2023-07-31T03:47:37;3.40;;;2.38;;
33495;SDS011;19836;55.812;37.560;2023-07-31T03:50:03;3.63;;;2.75;;
33495;SDS011;19836;55.812;37.560;2023-07-31T03:52:30;3.60;;;3.00;;
33495;SDS011;19836;55.812;37.560;2023-07-31T03:58:11;5.10;;;2.72;;
33495;SDS011;19836;55.812;37.560;2023-07-31T04:00:37;2.95;;;2.60;;
33495;SDS011;19836;55.812;37.560;2023-07-31T04:03:06;7.63;;;3.17;;
33495;SDS011;19836;55.812;37.560;2023-07-31T04:05:32;5.10;;;3.15;;
33495;SDS011;19836;55.812;37.560;2023-07-31T04:07:58;4.57;;;2.92;;
33495;SDS011;19836;55.812;37.560;2023-07-31T04:10:44;7.05;;;2.90;;
33495;SDS011;19836;55.812;37.560;2023-07-31T04:13:13;3.55;;;2.63;;
33495;SDS011;19836;55.812;37.560;2023-07-31T04:15:40;5.50;;;3.00;;
33495;SDS011;19836;55.812;37.560;2023-07-31T04:18:06;4.63;;;2.97;;
33495;SDS011;19836;55.812;37.560;2023-07-31T04:20:32;3.88;;;2.65;;
33495;SDS011;19836;55.812;37.560;2023-07-31T04:22:58;4.35;;;2.70;;
33495;SDS011;19836;55.812;37.560;2023-07-31T04:25:24;3.35;;;2.78;;
33495;SDS011;19836;55.812;37.560;2023-07-31T04:27:50;5.32;;;2.55;;
33495;SDS011;19836;55.812;37.560;2023-07-31T04:30:16;5.40;;;2.47;;
33495;SDS011;19836;55.812;37.560;2023-07-31T04:32:42;3.25;;;2.67;;
33495;SDS011;19836;55.812;37.560;2023-07-31T04:35:08;6.63;;;2.67;;
33495;SDS011;19836;55.812;37.560;2023-07-31T04:37:34;4.50;;;2.53;;
33495;SDS011;19836;55.812;37.560;2023-07-31T04:40:00;3.83;;;2.20;;
33495;SDS011;19836;55.812;37.560;2023-07-31T04:42:26;6.47;;;2.35;;
33495;SDS011;19836;55.812;37.560;2023-07-31T04:44:51;5.20;;;2.50;;
33495;SDS011;19836;55.812;37.560;2023-07-31T04:47:18;3.72;;;2.22;;
33495;SDS011;19836;55.812;37.560;2023-07-31T04:49:45;4.43;;;2.42;;
33495;SDS011;19836;55.812;37.560;2023-07-31T04:52:11;4.43;;;1.88;;
33495;SDS011;19836;55.812;37.560;2023-07-31T04:54:36;3.30;;;2.33;;
33495;SDS011;19836;55.812;37.560;2023-07-31T04:57:02;3.33;;;2.00;;
33495;SDS011;19836;55.812;37.560;2023-07-31T04:59:28;4.55;;;1.98;;
33495;SDS011;19836;55.812;37.560;2023-07-31T05:01:55;3.38;;;2.60;;
33495;SDS011;19836;55.812;37.560;2023-07-31T05:04:21;3.15;;;2.08;;
33495;SDS011;19836;55.812;37.560;2023-07-31T05:06:47;3.00;;;2.20;;
33495;SDS011;19836;55.812;37.560;2023-07-31T05:09:13;2.30;;;2.00;;
33495;SDS011;19836;55.812;37.560;2023-07-31T05:11:39;4.60;;;2.35;;
33495;SDS011;19836;55.812;37.560;2023-07-31T05:14:06;2.90;;;2.08;;
33495;SDS011;19836;55.812;37.560;2023-07-31T05:16:33;5.47;;;2.10;;
33495;SDS011;19836;55.812;37.560;2023-07-31T05:18:58;3.03;;;1.88;;
33495;SDS011;19836;55.812;37.560;2023-07-31T05:21:24;2.20;;;1.73;;
33495;SDS011;19836;55.812;37.560;2023-07-31T05:23:50;2.17;;;1.88;;
33495;SDS011;19836;55.812;37.560;2023-07-31T05:26:16;3.08;;;2.03;;
33495;SDS011;19836;55.812;37.560;2023-07-31T05:28:43;3.88;;;2.05;;
33495;SDS011;19836;55.812;37.560;2023-07-31T05:31:08;3.10;;;1.73;;
33495;SDS011;19836;55.812;37.560;2023-07-31T05:33:34;2.10;;;1.73;;
33495;SDS011;19836;55.812;37.560;2023-07-31T05:36:00;3.25;;;1.73;;
33495;SDS011;19836;55.812;37.560;2023-07-31T05:38:26;3.35;;;1.80;;
33495;SDS011;19836;55.812;37.560;2023-07-31T05:40:52;3.75;;;1.70;;
33495;SDS011;19836;55.812;37.560;2023-07-31T05:43:18;3.15;;;1.90;;
33495;SDS011;19836;55.812;37.560;2023-07-31T05:45:44;4.22;;;2.00;;
33495;SDS011;19836;55.812;37.560;2023-07-31T05:48:10;3.13;;;1.98;;
33495;SDS011;19836;55.812;37.560;2023-07-31T05:50:36;2.75;;;2.20;;
33495;SDS011;19836;55.812;37.560;2023-07-31T05:53:04;4.18;;;2.40;;
33495;SDS011;19836;55.812;37.560;2023-07-31T05:55:31;4.75;;;2.20;;
33495;SDS011;19836;55.812;37.560;2023-07-31T05:57:57;5.40;;;2.33;;
33495;SDS011;19836;55.812;37.560;2023-07-31T06:00:23;4.07;;;2.10;;
33495;SDS011;19836;55.812;37.560;2023-07-31T06:02:49;4.00;;;2.40;;
33495;SDS011;19836;55.812;37.560;2023-07-31T06:05:15;4.53;;;2.15;;
33495;SDS011;19836;55.812;37.560;2023-07-31T06:07:41;4.25;;;1.88;;
33495;SDS011;19836;55.812;37.560;2023-07-31T06:10:07;3.05;;;2.08;;
33495;SDS011;19836;55.812;37.560;2023-07-31T06:12:34;2.80;;;2.17;;
33495;SDS011;19836;55.812;37.560;2023-07-31T06:15:00;4.13;;;2.13;;
33495;SDS011;19836;55.812;37.560;2023-07-31T06:17:30;2.95;;;2.00;;
33495;SDS011;19836;55.812;37.560;2023-07-31T06:19:56;1.92;;;1.55;;
33495;SDS011;19836;55.812;37.560;2023-07-31T06:22:23;2.78;;;1.70;;
33495;SDS011;19836;55.812;37.560;2023-07-31T06:24:48;2.38;;;1.85;;
33495;SDS011;19836;55.812;37.560;2023-07-31T06:27:14;2.63;;;1.70;;
33495;SDS011;19836;55.812;37.560;2023-07-31T06:29:40;3.30;;;2.38;;
33495;SDS011;19836;55.812;37.560;2023-07-31T06:32:07;3.45;;;1.73;;
33495;SDS011;19836;55.812;37.560;2023-07-31T06:34:33;5.97;;;3.47;;
33495;SDS011;19836;55.812;37.560;2023-07-31T06:36:59;4.38;;;2.90;;
33495;SDS011;19836;55.812;37.560;2023-07-31T06:39:26;4.60;;;2.17;;
33495;SDS011;19836;55.812;37.560;2023-07-31T06:41:52;3.85;;;1.92;;
33495;SDS011;19836;55.812;37.560;2023-07-31T06:44:18;4.22;;;2.30;;
33495;SDS011;19836;55.812;37.560;2023-07-31T06:46:44;4.05;;;2.33;;
33495;SDS011;19836;55.812;37.560;2023-07-31T06:49:10;3.90;;;1.60;;
33495;SDS011;19836;55.812;37.560;2023-07-31T06:51:36;3.83;;;1.40;;
33495;SDS011;19836;55.812;37.560;2023-07-31T06:54:03;3.13;;;2.03;;
33495;SDS011;19836;55.812;37.560;2023-07-31T06:56:30;2.33;;;1.65;;
33495;SDS011;19836;55.812;37.560;2023-07-31T06:58:56;2.45;;;1.83;;
33495;SDS011;19836;55.812;37.560;2023-07-31T07:01:22;1.63;;;1.05;;
33495;SDS011;19836;55.812;37.560;2023-07-31T07:03:48;1.48;;;1.38;;
33495;SDS011;19836;55.812;37.560;2023-07-31T07:06:19;2.70;;;1.33;;
33495;SDS011;19836;55.812;37.560;2023-07-31T07:08:48;4.15;;;1.92;;
33495;SDS011;19836;55.812;37.560;2023-07-31T07:11:14;2.05;;;1.20;;
33495;SDS011;19836;55.812;37.560;2023-07-31T07:13:40;3.67;;;1.58;;
33495;SDS011;19836;55.812;37.560;2023-07-31T07:16:06;2.95;;;1.35;;
33495;SDS011;19836;55.812;37.560;2023-07-31T07:18:32;1.83;;;1.17;;
33495;SDS011;19836;55.812;37.560;2023-07-31T07:20:58;2.28;;;1.75;;
33495;SDS011;19836;55.812;37.560;2023-07-31T07:23:27;2.33;;;1.13;;
33495;SDS011;19836;55.812;37.560;2023-07-31T07:25:53;2.17;;;0.80;;
33495;SDS011;19836;55.812;37.560;2023-07-31T07:28:27;1.83;;;1.00;;
33495;SDS011;19836;55.812;37.560;2023-07-31T07:30:54;3.58;;;1.20;;
33495;SDS011;19836;55.812;37.560;2023-07-31T07:33:20;1.58;;;1.08;;
33495;SDS011;19836;55.812;37.560;2023-07-31T07:35:46;3.42;;;1.42;;
33495;SDS011;19836;55.812;37.560;2023-07-31T07:38:13;1.30;;;0.95;;
33495;SDS011;19836;55.812;37.560;2023-07-31T07:40:42;1.55;;;0.82;;
33495;SDS011;19836;55.812;37.560;2023-07-31T07:43:08;1.65;;;0.93;;
33495;SDS011;19836;55.812;37.560;2023-07-31T07:45:34;1.67;;;0.90;;
33495;SDS011;19836;55.812;37.560;2023-07-31T07:48:00;2.72;;;0.80;;
33495;SDS011;19836;55.812;37.560;2023-07-31T07:50:26;1.70;;;1.02;;
33495;SDS011;19836;55.812;37.560;2023-07-31T07:52:52;1.63;;;0.98;;
33495;SDS011;19836;55.812;37.560;2023-07-31T07:55:20;0.73;;;0.70;;
33495;SDS011;19836;55.812;37.560;2023-07-31T07:57:46;0.95;;;0.70;;
33495;SDS011;19836;55.812;37.560;2023-07-31T08:00:15;1.55;;;0.77;;
33495;SDS011;19836;55.812;37.560;2023-07-31T08:02:43;2.05;;;0.77;;
33495;SDS011;19836;55.812;37.560;2023-07-31T08:08:05;2.45;;;0.90;;
33495;SDS011;19836;55.812;37.560;2023-07-31T08:10:31;1.73;;;0.70;;
33495;SDS011;19836;55.812;37.560;2023-07-31T08:12:57;1.40;;;1.00;;
33495;SDS011;19836;55.812;37.560;2023-07-31T08:15:23;1.38;;;0.80;;
33495;SDS011;19836;55.812;37.560;2023-07-31T08:17:49;1.33;;;0.80;;
33495;SDS011;19836;55.812;37.560;2023-07-31T08:20:15;0.80;;;0.80;;
33495;SDS011;19836;55.812;37.560;2023-07-31T08:22:41;1.50;;;0.80;;
33495;SDS011;19836;55.812;37.560;2023-07-31T08:25:07;1.55;;;1.40;;
33495;SDS011;19836;55.812;37.560;2023-07-31T08:27:33;2.60;;;1.45;;
33495;SDS011;19836;55.812;37.560;2023-07-31T08:29:59;1.38;;;0.80;;
33495;SDS011;19836;55.812;37.560;2023-07-31T08:32:24;1.90;;;1.02;;
33495;SDS011;19836;55.812;37.560;2023-07-31T08:34:50;2.90;;;2.70;;
33495;SDS011;19836;55.812;37.560;2023-07-31T08:37:16;1.55;;;0.90;;
33495;SDS011;19836;55.812;37.560;2023-07-31T08:39:42;0.98;;;0.85;;
33495;SDS011;19836;55.812;37.560;2023-07-31T08:42:08;1.98;;;1.23;;
33495;SDS011;19836;55.812;37.560;2023-07-31T08:44:34;1.20;;;1.10;;
33495;SDS011;19836;55.812;37.560;2023-07-31T08:47:02;2.92;;;1.00;;
33495;SDS011;19836;55.812;37.560;2023-07-31T08:49:28;1.02;;;0.90;;
33495;SDS011;19836;55.812;37.560;2023-07-31T08:51:56;0.82;;;0.80;;
33495;SDS011;19836;55.812;37.560;2023-07-31T08:54:23;1.60;;;1.00;;
33495;SDS011;19836;55.812;37.560;2023-07-31T08:56:49;0.80;;;0.80;;
33495;SDS011;19836;55.812;37.560;2023-07-31T08:59:17;1.15;;;0.93;;
33495;SDS011;19836;55.812;37.560;2023-07-31T09:01:46;2.20;;;0.77;;
33495;SDS011;19836;55.812;37.560;2023-07-31T09:04:16;2.25;;;1.10;;
33495;SDS011;19836;55.812;37.560;2023-07-31T09:06:45;0.80;;;0.80;;
33495;SDS011;19836;55.812;37.560;2023-07-31T09:09:13;0.98;;;0.70;;
33495;SDS011;19836;55.812;37.560;2023-07-31T09:11:40;1.55;;;0.80;;
33495;SDS011;19836;55.812;37.560;2023-07-31T09:14:07;1.58;;;1.10;;
33495;SDS011;19836;55.812;37.560;2023-07-31T09:16:34;1.00;;;0.90;;
33495;SDS011;19836;55.812;37.560;2023-07-31T09:19:01;1.13;;;0.90;;
33495;SDS011;19836;55.812;37.560;2023-07-31T09:21:30;1.50;;;1.00;;
33495;SDS011;19836;55.812;37.560;2023-07-31T09:23:56;1.00;;;0.90;;
33495;SDS011;19836;55.812;37.560;2023-07-31T09:26:29;1.20;;;1.00;;
33495;SDS011;19836;55.812;37.560;2023-07-31T09:28:56;1.67;;;1.10;;
33495;SDS011;19836;55.812;37.560;2023-07-31T09:31:32;1.77;;;0.90;;
33495;SDS011;19836;55.812;37.560;2023-07-31T09:34:06;1.23;;;1.10;;
33495;SDS011;19836;55.812;37.560;2023-07-31T09:36:32;1.55;;;1.00;;
33495;SDS011;19836;55.812;37.560;2023-07-31T09:39:05;0.68;;;0.68;;
33495;SDS011;19836;55.812;37.560;2023-07-31T09:41:38;1.98;;;1.05;;
33495;SDS011;19836;55.812;37.560;2023-07-31T09:44:06;1.58;;;1.13;;
33495;SDS011;19836;55.812;37.560;2023-07-31T09:46:34;1.80;;;0.98;;
33495;SDS011;19836;55.812;37.560;2023-07-31T09:49:06;2.33;;;1.08;;
33495;SDS011;19836;55.812;37.560;2023-07-31T09:51:35;1.70;;;1.10;;
33495;SDS011;19836;55.812;37.560;2023-07-31T09:54:14;1.58;;;1.23;;
33495;SDS011;19836;55.812;37.560;2023-07-31T09:56:42;2.10;;;1.10;;
33495;SDS011;19836;55.812;37.560;2023-07-31T09:59:13;1.08;;;0.90;;
33495;SDS011;19836;55.812;37.560;2023-07-31T10:01:46;1.13;;;1.00;;
33495;SDS011;19836;55.812;37.560;2023-07-31T10:04:13;1.20;;;1.00;;
33495;SDS011;19836;55.812;37.560;2023-07-31T10:06:40;0.90;;;0.90;;
33495;SDS011;19836;55.812;37.560;2023-07-31T10:09:09;2.13;;;0.90;;
33495;SDS011;19836;55.812;37.560;2023-07-31T10:11:47;1.20;;;0.90;;
33495;SDS011;19836;55.812;37.560;2023-07-31T10:14:21;0.80;;;0.80;;
33495;SDS011;19836;55.812;37.560;2023-07-31T10:16:49;1.30;;;1.08;;
33495;SDS011;19836;55.812;37.560;2023-07-31T10:19:17;1.00;;;0.90;;
33495;SDS011;19836;55.812;37.560;2023-07-31T10:21:44;1.33;;;0.90;;
33495;SDS011;19836;55.812;37.560;2023-07-31T10:24:10;1.80;;;1.00;;
33495;SDS011;19836;55.812;37.560;2023-07-31T10:26:37;1.85;;;0.90;;
33495;SDS011;19836;55.812;37.560;2023-07-31T10:29:05;1.50;;;1.02;;
33495;SDS011;19836;55.812;37.560;2023-07-31T10:31:32;2.03;;;1.63;;
33495;SDS011;19836;55.812;37.560;2023-07-31T10:33:59;2.10;;;1.45;;
33495;SDS011;19836;55.812;37.560;2023-07-31T10:36:26;2.33;;;1.58;;
33495;SDS011;19836;55.812;37.560;2023-07-31T10:38:52;2.20;;;1.92;;
33495;SDS011;19836;55.812;37.560;2023-07-31T10:41:30;2.55;;;1.85;;
33495;SDS011;19836;55.812;37.560;2023-07-31T10:44:00;1.67;;;1.40;;
33495;SDS011;19836;55.812;37.560;2023-07-31T10:46:27;2.65;;;1.30;;
33495;SDS011;19836;55.812;37.560;2023-07-31T10:48:57;1.10;;;1.00;;
33495;SDS011;19836;55.812;37.560;2023-07-31T10:51:32;1.40;;;1.20;;
33495;SDS011;19836;55.812;37.560;2023-07-31T10:54:13;2.15;;;1.35;;
33495;SDS011;19836;55.812;37.560;2023-07-31T10:59:10;1.98;;;1.20;;
33495;SDS011;19836;55.812;37.560;2023-07-31T11:01:54;0.95;;;0.90;;
33495;SDS011;19836;55.812;37.560;2023-07-31T11:04:26;1.38;;;1.00;;
33495;SDS011;19836;55.812;37.560;2023-07-31T11:06:59;1.05;;;0.95;;
33495;SDS011;19836;55.812;37.560;2023-07-31T11:09:31;1.95;;;1.00;;
33495;SDS011;19836;55.812;37.560;2023-07-31T11:11:59;1.92;;;1.10;;
33495;SDS011;19836;55.812;37.560;2023-07-31T11:14:25;1.83;;;1.25;;
33495;SDS011;19836;55.812;37.560;2023-07-31T11:16:52;2.22;;;1.30;;
33495;SDS011;19836;55.812;37.560;2023-07-31T11:19:22;1.73;;;1.20;;
33495;SDS011;19836;55.812;37.560;2023-07-31T11:21:49;1.30;;;1.10;;
33495;SDS011;19836;55.812;37.560;2023-07-31T11:24:16;1.65;;;1.20;;
33495;SDS011;19836;55.812;37.560;2023-07-31T11:26:52;1.45;;;1.20;;
33495;SDS011;19836;55.812;37.560;2023-07-31T11:29:19;1.05;;;0.88;;
33495;SDS011;19836;55.812;37.560;2023-07-31T11:31:46;1.40;;;1.10;;
33495;SDS011;19836;55.812;37.560;2023-07-31T11:34:13;1.27;;;1.17;;
33495;SDS011;19836;55.812;37.560;2023-07-31T11:36:39;3.63;;;1.25;;
33495;SDS011;19836;55.812;37.560;2023-07-31T11:39:05;1.48;;;1.17;;
33495;SDS011;19836;55.812;37.560;2023-07-31T11:41:33;3.72;;;1.17;;
33495;SDS011;19836;55.812;37.560;2023-07-31T11:43:59;1.92;;;1.20;;
33495;SDS011;19836;55.812;37.560;2023-07-31T11:46:26;2.55;;;1.20;;
33495;SDS011;19836;55.812;37.560;2023-07-31T11:48:52;1.40;;;1.30;;
33495;SDS011;19836;55.812;37.560;2023-07-31T11:51:24;2.92;;;1.48;;
33495;SDS011;19836;55.812;37.560;2023-07-31T11:53:53;1.90;;;1.40;;
33495;SDS011;19836;55.812;37.560;2023-07-31T11:56:23;1.30;;;1.20;;
33495;SDS011;19836;55.812;37.560;2023-07-31T11:58:52;2.10;;;1.17;;
33495;SDS011;19836;55.812;37.560;2023-07-31T12:01:23;3.60;;;1.50;;
33495;SDS011;19836;55.812;37.560;2023-07-31T12:03:50;2.40;;;1.30;;
33495;SDS011;19836;55.812;37.560;2023-07-31T12:06:17;1.40;;;1.30;;
33495;SDS011;19836;55.812;37.560;2023-07-31T12:08:43;2.20;;;1.20;;
33495;SDS011;19836;55.812;37.560;2023-07-31T12:11:09;1.60;;;1.50;;
33495;SDS011;19836;55.812;37.560;2023-07-31T12:13:35;1.85;;;1.45;;
33495;SDS011;19836;55.812;37.560;2023-07-31T12:16:02;2.38;;;1.27;;
33495;SDS011;19836;55.812;37.560;2023-07-31T12:18:30;3.67;;;1.42;;
33495;SDS011;19836;55.812;37.560;2023-07-31T12:21:01;2.15;;;1.20;;
33495;SDS011;19836;55.812;37.560;2023-07-31T12:23:32;4.07;;;1.30;;
33495;SDS011;19836;55.812;37.560;2023-07-31T12:28:27;2.00;;;1.40;;
33495;SDS011;19836;55.812;37.560;2023-07-31T12:30:56;2.78;;;1.40;;
33495;SDS011;19836;55.812;37.560;2023-07-31T12:33:24;3.63;;;1.80;;
33495;SDS011;19836;55.812;37.560;2023-07-31T12:35:49;2.83;;;1.63;;
33495;SDS011;19836;55.812;37.560;2023-07-31T12:38:15;2.25;;;1.70;;
33495;SDS011;19836;55.812;37.560;2023-07-31T12:40:41;3.30;;;2.00;;
33495;SDS011;19836;55.812;37.560;2023-07-31T12:43:08;2.65;;;1.90;;
33495;SDS011;19836;55.812;37.560;2023-07-31T12:45:34;1.65;;;1.55;;
33495;SDS011;19836;55.812;37.560;2023-07-31T12:48:01;2.58;;;1.45;;
33495;SDS011;19836;55.812;37.560;2023-07-31T12:50:27;2.03;;;1.52;;
33495;SDS011;19836;55.812;37.560;2023-07-31T12:52:53;3.47;;;1.90;;
33495;SDS011;19836;55.812;37.560;2023-07-31T12:55:21;2.97;;;1.45;;
33495;SDS011;19836;55.812;37.560;2023-07-31T12:57:48;3.03;;;1.70;;
33495;SDS011;19836;55.812;37.560;2023-07-31T13:00:15;2.85;;;1.60;;
33495;SDS011;19836;55.812;37.560;2023-07-31T13:02:41;5.80;;;3.13;;
33495;SDS011;19836;55.812;37.560;2023-07-31T13:05:08;2.10;;;1.60;;
33495;SDS011;19836;55.812;37.560;2023-07-31T13:07:34;3.70;;;1.83;;
33495;SDS011;19836;55.812;37.560;2023-07-31T13:10:00;4.97;;;1.92;;
33495;SDS011;19836;55.812;37.560;2023-07-31T13:12:27;3.28;;;1.90;;
33495;SDS011;19836;55.812;37.560;2023-07-31T13:14:53;4.20;;;2.10;;
33495;SDS011;19836;55.812;37.560;2023-07-31T13:17:19;4.57;;;2.60;;
33495;SDS011;19836;55.812;37.560;2023-07-31T13:19:45;2.38;;;1.80;;
33495;SDS011;19836;55.812;37.560;2023-07-31T13:22:11;5.03;;;2.10;;
33495;SDS011;19836;55.812;37.560;2023-07-31T13:24:37;5.13;;;2.30;;
33495;SDS011;19836;55.812;37.560;2023-07-31T13:27:03;3.78;;;2.20;;
33495;SDS011;19836;55.812;37.560;2023-07-31T13:29:30;2.67;;;1.55;;
33495;SDS011;19836;55.812;37.560;2023-07-31T13:31:56;5.28;;;1.60;;
33495;SDS011;19836;55.812;37.560;2023-07-31T13:34:21;3.90;;;1.60;;
33495;SDS011;19836;55.812;37.560;2023-07-31T13:36:47;5.47;;;2.65;;
33495;SDS011;19836;55.812;37.560;2023-07-31T13:39:13;6.05;;;3.50;;
33495;SDS011;19836;55.812;37.560;2023-07-31T13:41:39;2.70;;;1.98;;
33495;SDS011;19836;55.812;37.560;2023-07-31T13:44:05;4.13;;;1.65;;
33495;SDS011;19836;55.812;37.560;2023-07-31T13:46:31;2.33;;;1.38;;
33495;SDS011;19836;55.812;37.560;2023-07-31T13:48:58;4.22;;;1.45;;
33495;SDS011;19836;55.812;37.560;2023-07-31T13:51:25;5.25;;;1.55;;
33495;SDS011;19836;55.812;37.560;2023-07-31T13:53:53;2.13;;;1.30;;
33495;SDS011;19836;55.812;37.560;2023-07-31T13:56:19;4.10;;;1.38;;
33495;SDS011;19836;55.812;37.560;2023-07-31T13:58:45;1.77;;;1.20;;
33495;SDS011;19836;55.812;37.560;2023-07-31T14:01:11;3.38;;;2.08;;
33495;SDS011;19836;55.812;37.560;2023-07-31T14:03:37;2.70;;;1.60;;
33495;SDS011;19836;55.812;37.560;2023-07-31T14:06:03;1.98;;;1.45;;
33495;SDS011;19836;55.812;37.560;2023-07-31T14:08:29;5.15;;;2.25;;
33495;SDS011;19836;55.812;37.560;2023-07-31T14:10:56;1.92;;;1.55;;
33495;SDS011;19836;55.812;37.560;2023-07-31T14:13:22;2.80;;;1.38;;
33495;SDS011;19836;55.812;37.560;2023-07-31T14:15:48;3.15;;;1.60;;
33495;SDS011;19836;55.812;37.560;2023-07-31T14:18:14;2.47;;;1.85;;
33495;SDS011;19836;55.812;37.560;2023-07-31T14:20:40;1.70;;;1.30;;
33495;SDS011;19836;55.812;37.560;2023-07-31T14:23:06;2.33;;;1.42;;
33495;SDS011;19836;55.812;37.560;2023-07-31T14:25:32;2.38;;;1.45;;
33495;SDS011;19836;55.812;37.560;2023-07-31T14:27:58;2.00;;;1.23;;
33495;SDS011;19836;55.812;37.560;2023-07-31T14:30:24;3.53;;;1.50;;
33495;SDS011;19836;55.812;37.560;2023-07-31T14:32:50;2.45;;;1.20;;
33495;SDS011;19836;55.812;37.560;2023-07-31T14:35:16;1.70;;;1.50;;
33495;SDS011;19836;55.812;37.560;2023-07-31T14:37:43;2.65;;;1.67;;
33495;SDS011;19836;55.812;37.560;2023-07-31T14:40:10;3.28;;;1.80;;
33495;SDS011;19836;55.812;37.560;2023-07-31T14:42:37;2.72;;;1.30;;
33495;SDS011;19836;55.812;37.560;2023-07-31T14:45:05;2.88;;;1.70;;
33495;SDS011;19836;55.812;37.560;2023-07-31T14:47:32;3.40;;;1.83;;
33495;SDS011;19836;55.812;37.560;2023-07-31T14:49:59;1.85;;;1.40;;